sensor_id;sensor_type;location;lat;lon;timestamp;P1;durP1;ratioP1;P2;durP2;ratioP2
22046;SDS011;11187;49.412;20.956;2022-12-05T00:00:21;25.98;;;22.52;;
22046;SDS011;11187;49.412;20.956;2022-12-05T00:03:15;25.25;;;21.33;;
22046;SDS011;11187;49.412;20.956;2022-12-05T00:05:48;24.67;;;21.92;;
22046;SDS011;11187;49.412;20.956;2022-12-05T00:08:43;23.52;;;21.02;;
22046;SDS011;11187;49.412;20.956;2022-12-05T00:11:17;26.02;;;22.13;;
22046;SDS011;11187;49.412;20.956;2022-12-05T00:14:07;29.70;;;21.80;;
22046;SDS011;11187;49.412;20.956;2022-12-05T00:16:41;29.15;;;22.40;;
22046;SDS011;11187;49.412;20.956;2022-12-05T00:19:28;26.45;;;21.02;;
22046;SDS011;11187;49.412;20.956;2022-12-05T00:22:01;28.23;;;23.85;;
22046;SDS011;11187;49.412;20.956;2022-12-05T00:24:48;30.33;;;22.52;;
22046;SDS011;11187;49.412;20.956;2022-12-05T00:27:23;29.50;;;21.80;;
22046;SDS011;11187;49.412;20.956;2022-12-05T00:30:10;26.33;;;21.23;;
22046;SDS011;11187;49.412;20.956;2022-12-05T00:32:43;26.10;;;21.92;;
22046;SDS011;11187;49.412;20.956;2022-12-05T00:35:31;31.05;;;22.33;;
22046;SDS011;11187;49.412;20.956;2022-12-05T00:38:05;27.92;;;22.67;;
22046;SDS011;11187;49.412;20.956;2022-12-05T00:40:52;29.90;;;22.55;;
22046;SDS011;11187;49.412;20.956;2022-12-05T00:43:25;31.77;;;22.73;;
22046;SDS011;11187;49.412;20.956;2022-12-05T00:46:23;33.33;;;23.02;;
22046;SDS011;11187;49.412;20.956;2022-12-05T00:48:58;30.60;;;23.75;;
22046;SDS011;11187;49.412;20.956;2022-12-05T00:51:52;33.08;;;23.60;;
22046;SDS011;11187;49.412;20.956;2022-12-05T00:54:46;32.40;;;23.13;;
22046;SDS011;11187;49.412;20.956;2022-12-05T00:57:22;26.92;;;22.58;;
22046;SDS011;11187;49.412;20.956;2022-12-05T01:00:09;35.38;;;23.63;;
22046;SDS011;11187;49.412;20.956;2022-12-05T01:02:42;28.83;;;23.00;;
22046;SDS011;11187;49.412;20.956;2022-12-05T01:05:36;28.95;;;22.55;;
22046;SDS011;11187;49.412;20.956;2022-12-05T01:08:09;27.92;;;22.27;;
22046;SDS011;11187;49.412;20.956;2022-12-05T01:11:05;32.22;;;24.55;;
22046;SDS011;11187;49.412;20.956;2022-12-05T01:14:00;29.73;;;23.27;;
22046;SDS011;11187;49.412;20.956;2022-12-05T01:16:34;25.60;;;22.02;;
22046;SDS011;11187;49.412;20.956;2022-12-05T01:19:23;25.00;;;22.13;;
22046;SDS011;11187;49.412;20.956;2022-12-05T01:21:59;24.13;;;21.25;;
22046;SDS011;11187;49.412;20.956;2022-12-05T01:24:47;22.48;;;20.08;;
22046;SDS011;11187;49.412;20.956;2022-12-05T01:27:20;21.38;;;19.17;;
22046;SDS011;11187;49.412;20.956;2022-12-05T01:30:14;24.48;;;21.92;;
22046;SDS011;11187;49.412;20.956;2022-12-05T01:32:47;27.30;;;22.73;;
22046;SDS011;11187;49.412;20.956;2022-12-05T01:35:35;24.77;;;21.85;;
22046;SDS011;11187;49.412;20.956;2022-12-05T01:38:10;26.00;;;21.23;;
22046;SDS011;11187;49.412;20.956;2022-12-05T01:40:59;25.65;;;21.73;;
22046;SDS011;11187;49.412;20.956;2022-12-05T01:43:51;30.15;;;23.20;;
22046;SDS011;11187;49.412;20.956;2022-12-05T01:46:39;28.30;;;22.27;;
22046;SDS011;11187;49.412;20.956;2022-12-05T01:49:19;27.42;;;22.23;;
22046;SDS011;11187;49.412;20.956;2022-12-05T01:52:18;29.00;;;23.63;;
22046;SDS011;11187;49.412;20.956;2022-12-05T01:55:16;29.98;;;23.50;;
22046;SDS011;11187;49.412;20.956;2022-12-05T01:58:11;29.83;;;22.90;;
22046;SDS011;11187;49.412;20.956;2022-12-05T02:01:05;28.02;;;23.20;;
22046;SDS011;11187;49.412;20.956;2022-12-05T02:03:39;25.35;;;21.90;;
22046;SDS011;11187;49.412;20.956;2022-12-05T02:06:36;25.27;;;22.63;;
22046;SDS011;11187;49.412;20.956;2022-12-05T02:09:30;26.90;;;23.00;;
22046;SDS011;11187;49.412;20.956;2022-12-05T02:12:24;27.20;;;22.95;;
22046;SDS011;11187;49.412;20.956;2022-12-05T02:18:36;28.00;;;23.20;;
22046;SDS011;11187;49.412;20.956;2022-12-05T02:28:05;29.15;;;24.25;;
22046;SDS011;11187;49.412;20.956;2022-12-05T02:30:56;25.58;;;21.85;;
22046;SDS011;11187;49.412;20.956;2022-12-05T02:36:39;24.17;;;21.67;;
22046;SDS011;11187;49.412;20.956;2022-12-05T02:39:36;26.70;;;22.80;;
22046;SDS011;11187;49.412;20.956;2022-12-05T02:45:26;27.02;;;22.23;;
22046;SDS011;11187;49.412;20.956;2022-12-05T02:48:01;27.92;;;23.08;;
22046;SDS011;11187;49.412;20.956;2022-12-05T02:50:58;25.95;;;23.17;;
22046;SDS011;11187;49.412;20.956;2022-12-05T02:53:35;26.15;;;21.88;;
22046;SDS011;11187;49.412;20.956;2022-12-05T02:56:23;27.42;;;24.05;;
22046;SDS011;11187;49.412;20.956;2022-12-05T02:58:58;25.88;;;22.58;;
22046;SDS011;11187;49.412;20.956;2022-12-05T03:02:01;26.13;;;23.50;;
22046;SDS011;11187;49.412;20.956;2022-12-05T03:04:34;28.17;;;22.02;;
22046;SDS011;11187;49.412;20.956;2022-12-05T03:07:28;25.65;;;21.98;;
22046;SDS011;11187;49.412;20.956;2022-12-05T03:10:24;27.00;;;24.10;;
22046;SDS011;11187;49.412;20.956;2022-12-05T03:13:01;25.02;;;22.35;;
22046;SDS011;11187;49.412;20.956;2022-12-05T03:16:02;26.52;;;23.10;;
22046;SDS011;11187;49.412;20.956;2022-12-05T03:19:05;27.90;;;23.65;;
22046;SDS011;11187;49.412;20.956;2022-12-05T03:21:50;29.92;;;23.55;;
22046;SDS011;11187;49.412;20.956;2022-12-05T03:24:50;26.30;;;23.52;;
22046;SDS011;11187;49.412;20.956;2022-12-05T03:27:28;24.75;;;22.30;;
22046;SDS011;11187;49.412;20.956;2022-12-05T03:30:39;26.35;;;23.52;;
22046;SDS011;11187;49.412;20.956;2022-12-05T03:33:35;24.73;;;22.10;;
22046;SDS011;11187;49.412;20.956;2022-12-05T03:36:14;24.77;;;22.30;;
22046;SDS011;11187;49.412;20.956;2022-12-05T03:41:43;25.40;;;22.70;;
22046;SDS011;11187;49.412;20.956;2022-12-05T03:47:41;25.80;;;23.08;;
22046;SDS011;11187;49.412;20.956;2022-12-05T03:50:43;24.27;;;21.67;;
22046;SDS011;11187;49.412;20.956;2022-12-05T03:53:41;25.33;;;22.65;;
22046;SDS011;11187;49.412;20.956;2022-12-05T03:56:20;25.73;;;23.00;;
22046;SDS011;11187;49.412;20.956;2022-12-05T03:59:17;26.40;;;23.80;;
22046;SDS011;11187;49.412;20.956;2022-12-05T04:01:58;24.80;;;22.38;;
22046;SDS011;11187;49.412;20.956;2022-12-05T04:04:57;25.92;;;23.17;;
22046;SDS011;11187;49.412;20.956;2022-12-05T04:07:36;24.48;;;21.45;;
22046;SDS011;11187;49.412;20.956;2022-12-05T04:10:27;24.40;;;21.70;;
22046;SDS011;11187;49.412;20.956;2022-12-05T04:13:11;24.10;;;21.63;;
22046;SDS011;11187;49.412;20.956;2022-12-05T04:16:01;25.75;;;22.40;;
22046;SDS011;11187;49.412;20.956;2022-12-05T04:19:03;24.50;;;21.45;;
22046;SDS011;11187;49.412;20.956;2022-12-05T04:21:58;25.90;;;21.58;;
22046;SDS011;11187;49.412;20.956;2022-12-05T04:24:53;25.05;;;21.48;;
22046;SDS011;11187;49.412;20.956;2022-12-05T04:28:18;24.80;;;22.10;;
22046;SDS011;11187;49.412;20.956;2022-12-05T04:31:24;27.02;;;21.92;;
22046;SDS011;11187;49.412;20.956;2022-12-05T04:34:24;25.67;;;21.10;;
22046;SDS011;11187;49.412;20.956;2022-12-05T04:37:01;23.92;;;20.23;;
22046;SDS011;11187;49.412;20.956;2022-12-05T04:39:53;27.58;;;22.50;;
22046;SDS011;11187;49.412;20.956;2022-12-05T04:42:33;25.17;;;22.45;;
22046;SDS011;11187;49.412;20.956;2022-12-05T04:45:23;25.67;;;21.98;;
22046;SDS011;11187;49.412;20.956;2022-12-05T04:47:59;27.20;;;22.45;;
22046;SDS011;11187;49.412;20.956;2022-12-05T04:50:57;23.98;;;20.25;;
22046;SDS011;11187;49.412;20.956;2022-12-05T04:53:53;26.88;;;22.60;;
22046;SDS011;11187;49.412;20.956;2022-12-05T04:56:32;27.40;;;22.95;;
22046;SDS011;11187;49.412;20.956;2022-12-05T04:59:21;28.02;;;22.48;;
22046;SDS011;11187;49.412;20.956;2022-12-05T05:01:56;31.35;;;24.50;;
22046;SDS011;11187;49.412;20.956;2022-12-05T05:04:48;29.88;;;23.52;;
22046;SDS011;11187;49.412;20.956;2022-12-05T05:07:23;30.75;;;23.92;;
22046;SDS011;11187;49.412;20.956;2022-12-05T05:10:10;30.58;;;23.20;;
22046;SDS011;11187;49.412;20.956;2022-12-05T05:12:46;25.35;;;20.75;;
22046;SDS011;11187;49.412;20.956;2022-12-05T05:15:40;33.63;;;23.98;;
22046;SDS011;11187;49.412;20.956;2022-12-05T05:18:34;28.98;;;22.58;;
22046;SDS011;11187;49.412;20.956;2022-12-05T05:21:12;24.88;;;20.60;;
22046;SDS011;11187;49.412;20.956;2022-12-05T05:24:04;29.48;;;22.75;;
22046;SDS011;11187;49.412;20.956;2022-12-05T05:26:39;25.10;;;21.73;;
22046;SDS011;11187;49.412;20.956;2022-12-05T05:29:35;25.10;;;22.48;;
22046;SDS011;11187;49.412;20.956;2022-12-05T05:32:08;27.40;;;23.05;;
22046;SDS011;11187;49.412;20.956;2022-12-05T05:34:55;27.58;;;24.10;;
22046;SDS011;11187;49.412;20.956;2022-12-05T05:37:28;26.00;;;22.45;;
22046;SDS011;11187;49.412;20.956;2022-12-05T05:40:15;30.38;;;21.77;;
22046;SDS011;11187;49.412;20.956;2022-12-05T05:42:48;26.80;;;22.10;;
22046;SDS011;11187;49.412;20.956;2022-12-05T05:45:42;29.42;;;23.27;;
22046;SDS011;11187;49.412;20.956;2022-12-05T05:48:36;29.48;;;23.67;;
22046;SDS011;11187;49.412;20.956;2022-12-05T05:51:30;29.50;;;23.63;;
22046;SDS011;11187;49.412;20.956;2022-12-05T05:54:04;30.05;;;23.00;;
22046;SDS011;11187;49.412;20.956;2022-12-05T05:56:51;29.63;;;23.65;;
22046;SDS011;11187;49.412;20.956;2022-12-05T05:59:24;27.33;;;21.83;;
22046;SDS011;11187;49.412;20.956;2022-12-05T06:02:11;31.23;;;23.80;;
22046;SDS011;11187;49.412;20.956;2022-12-05T06:04:44;25.70;;;21.48;;
22046;SDS011;11187;49.412;20.956;2022-12-05T06:07:31;25.67;;;20.08;;
22046;SDS011;11187;49.412;20.956;2022-12-05T06:10:05;26.75;;;21.25;;
22046;SDS011;11187;49.412;20.956;2022-12-05T06:12:52;29.17;;;24.20;;
22046;SDS011;11187;49.412;20.956;2022-12-05T06:15:25;29.73;;;23.98;;
22046;SDS011;11187;49.412;20.956;2022-12-05T06:18:12;27.92;;;22.70;;
22046;SDS011;11187;49.412;20.956;2022-12-05T06:20:52;28.85;;;23.13;;
22046;SDS011;11187;49.412;20.956;2022-12-05T06:23:39;31.48;;;24.08;;
22046;SDS011;11187;49.412;20.956;2022-12-05T06:26:13;32.40;;;22.45;;
22046;SDS011;11187;49.412;20.956;2022-12-05T06:29:02;33.58;;;23.80;;
22046;SDS011;11187;49.412;20.956;2022-12-05T06:31:35;27.83;;;21.13;;
22046;SDS011;11187;49.412;20.956;2022-12-05T06:34:22;30.77;;;23.17;;
22046;SDS011;11187;49.412;20.956;2022-12-05T06:36:55;30.27;;;22.67;;
22046;SDS011;11187;49.412;20.956;2022-12-05T06:39:49;32.90;;;24.00;;
22046;SDS011;11187;49.412;20.956;2022-12-05T06:42:43;37.35;;;25.30;;
22046;SDS011;11187;49.412;20.956;2022-12-05T06:45:16;38.83;;;26.92;;
22046;SDS011;11187;49.412;20.956;2022-12-05T06:48:03;29.85;;;24.08;;
22046;SDS011;11187;49.412;20.956;2022-12-05T06:50:36;31.02;;;23.55;;
22046;SDS011;11187;49.412;20.956;2022-12-05T06:53:30;31.48;;;26.55;;
22046;SDS011;11187;49.412;20.956;2022-12-05T06:56:04;30.73;;;21.90;;
22046;SDS011;11187;49.412;20.956;2022-12-05T06:58:53;33.42;;;23.73;;
22046;SDS011;11187;49.412;20.956;2022-12-05T07:01:27;46.78;;;26.40;;
22046;SDS011;11187;49.412;20.956;2022-12-05T07:04:24;49.20;;;29.70;;
22046;SDS011;11187;49.412;20.956;2022-12-05T07:07:18;37.67;;;25.55;;
22046;SDS011;11187;49.412;20.956;2022-12-05T07:09:51;40.47;;;26.45;;
22046;SDS011;11187;49.412;20.956;2022-12-05T07:12:45;35.40;;;25.00;;
22046;SDS011;11187;49.412;20.956;2022-12-05T07:15:39;51.67;;;30.30;;
22046;SDS011;11187;49.412;20.956;2022-12-05T07:18:34;51.45;;;31.73;;
22046;SDS011;11187;49.412;20.956;2022-12-05T07:21:10;55.53;;;30.98;;
22046;SDS011;11187;49.412;20.956;2022-12-05T07:24:07;56.03;;;33.92;;
22046;SDS011;11187;49.412;20.956;2022-12-05T07:27:01;39.63;;;27.02;;
22046;SDS011;11187;49.412;20.956;2022-12-05T07:29:34;33.88;;;24.55;;
22046;SDS011;11187;49.412;20.956;2022-12-05T07:32:21;31.13;;;23.70;;
22046;SDS011;11187;49.412;20.956;2022-12-05T07:34:54;31.10;;;24.90;;
22046;SDS011;11187;49.412;20.956;2022-12-05T07:37:41;30.98;;;24.67;;
22046;SDS011;11187;49.412;20.956;2022-12-05T07:40:14;31.23;;;25.58;;
22046;SDS011;11187;49.412;20.956;2022-12-05T07:43:01;31.67;;;26.67;;
22046;SDS011;11187;49.412;20.956;2022-12-05T07:45:34;35.85;;;28.92;;
22046;SDS011;11187;49.412;20.956;2022-12-05T07:48:28;34.83;;;26.00;;
22046;SDS011;11187;49.412;20.956;2022-12-05T07:51:22;36.25;;;27.23;;
22046;SDS011;11187;49.412;20.956;2022-12-05T07:54:16;34.70;;;26.80;;
22046;SDS011;11187;49.412;20.956;2022-12-05T07:56:49;33.42;;;25.52;;
22046;SDS011;11187;49.412;20.956;2022-12-05T07:59:43;35.08;;;24.70;;
22046;SDS011;11187;49.412;20.956;2022-12-05T08:02:37;37.88;;;26.25;;
22046;SDS011;11187;49.412;20.956;2022-12-05T08:05:11;38.03;;;27.08;;
22046;SDS011;11187;49.412;20.956;2022-12-05T08:08:04;40.90;;;26.00;;
22046;SDS011;11187;49.412;20.956;2022-12-05T08:11:05;34.28;;;25.15;;
22046;SDS011;11187;49.412;20.956;2022-12-05T08:14:04;35.67;;;25.13;;
22046;SDS011;11187;49.412;20.956;2022-12-05T08:16:58;40.28;;;27.30;;
22046;SDS011;11187;49.412;20.956;2022-12-05T08:19:52;38.25;;;26.90;;
22046;SDS011;11187;49.412;20.956;2022-12-05T08:22:46;38.15;;;27.70;;
22046;SDS011;11187;49.412;20.956;2022-12-05T08:25:40;36.72;;;26.13;;
22046;SDS011;11187;49.412;20.956;2022-12-05T08:28:13;27.40;;;23.90;;
22046;SDS011;11187;49.412;20.956;2022-12-05T08:31:04;28.27;;;23.90;;
22046;SDS011;11187;49.412;20.956;2022-12-05T08:33:40;27.05;;;22.27;;
22046;SDS011;11187;49.412;20.956;2022-12-05T08:36:28;27.52;;;22.55;;
22046;SDS011;11187;49.412;20.956;2022-12-05T08:39:02;29.30;;;22.08;;
22046;SDS011;11187;49.412;20.956;2022-12-05T08:41:52;26.60;;;22.17;;
22046;SDS011;11187;49.412;20.956;2022-12-05T08:44:25;22.52;;;20.23;;
22046;SDS011;11187;49.412;20.956;2022-12-05T08:47:12;24.65;;;21.08;;
22046;SDS011;11187;49.412;20.956;2022-12-05T08:49:46;28.83;;;22.23;;
22046;SDS011;11187;49.412;20.956;2022-12-05T08:52:32;24.27;;;21.70;;
22046;SDS011;11187;49.412;20.956;2022-12-05T08:55:06;23.38;;;20.40;;
22046;SDS011;11187;49.412;20.956;2022-12-05T08:58:00;26.67;;;20.73;;
22046;SDS011;11187;49.412;20.956;2022-12-05T09:00:33;23.25;;;20.40;;
22046;SDS011;11187;49.412;20.956;2022-12-05T09:03:27;23.40;;;20.60;;
22046;SDS011;11187;49.412;20.956;2022-12-05T09:06:07;25.27;;;20.38;;
22046;SDS011;11187;49.412;20.956;2022-12-05T09:09:09;22.20;;;18.50;;
22046;SDS011;11187;49.412;20.956;2022-12-05T09:11:43;21.95;;;18.83;;
22046;SDS011;11187;49.412;20.956;2022-12-05T09:14:37;22.38;;;19.15;;
22046;SDS011;11187;49.412;20.956;2022-12-05T09:17:10;23.52;;;19.27;;
22046;SDS011;11187;49.412;20.956;2022-12-05T09:19:57;22.40;;;18.13;;
22046;SDS011;11187;49.412;20.956;2022-12-05T09:22:31;22.15;;;18.70;;
22046;SDS011;11187;49.412;20.956;2022-12-05T09:25:18;19.92;;;18.00;;
22046;SDS011;11187;49.412;20.956;2022-12-05T09:27:52;21.33;;;19.10;;
22046;SDS011;11187;49.412;20.956;2022-12-05T09:30:38;20.58;;;18.25;;
22046;SDS011;11187;49.412;20.956;2022-12-05T09:33:12;21.67;;;17.90;;
22046;SDS011;11187;49.412;20.956;2022-12-05T09:36:01;22.15;;;18.42;;
22046;SDS011;11187;49.412;20.956;2022-12-05T09:38:38;25.70;;;18.63;;
22046;SDS011;11187;49.412;20.956;2022-12-05T09:53:29;20.30;;;18.23;;
22046;SDS011;11187;49.412;20.956;2022-12-05T09:56:27;23.83;;;19.60;;
22046;SDS011;11187;49.412;20.956;2022-12-05T09:59:01;19.70;;;16.90;;
22046;SDS011;11187;49.412;20.956;2022-12-05T10:07:22;20.42;;;18.42;;
22046;SDS011;11187;49.412;20.956;2022-12-05T10:15:59;22.08;;;18.42;;
22046;SDS011;11187;49.412;20.956;2022-12-05T10:19:02;22.90;;;18.92;;
22046;SDS011;11187;49.412;20.956;2022-12-05T10:21:49;21.02;;;17.60;;
22046;SDS011;11187;49.412;20.956;2022-12-05T10:24:42;21.33;;;17.73;;
22046;SDS011;11187;49.412;20.956;2022-12-05T10:27:20;19.33;;;17.38;;
22046;SDS011;11187;49.412;20.956;2022-12-05T10:30:19;19.30;;;17.33;;
22046;SDS011;11187;49.412;20.956;2022-12-05T10:32:56;17.92;;;16.27;;
22046;SDS011;11187;49.412;20.956;2022-12-05T10:35:48;23.50;;;19.15;;
22046;SDS011;11187;49.412;20.956;2022-12-05T10:38:27;20.90;;;18.23;;
22046;SDS011;11187;49.412;20.956;2022-12-05T10:41:15;19.55;;;17.17;;
22046;SDS011;11187;49.412;20.956;2022-12-05T10:43:49;19.30;;;17.42;;
22046;SDS011;11187;49.412;20.956;2022-12-05T10:46:43;18.15;;;16.42;;
22046;SDS011;11187;49.412;20.956;2022-12-05T10:49:37;17.67;;;15.88;;
22046;SDS011;11187;49.412;20.956;2022-12-05T10:52:12;16.42;;;14.98;;
22046;SDS011;11187;49.412;20.956;2022-12-05T10:55:01;16.98;;;15.52;;
22046;SDS011;11187;49.412;20.956;2022-12-05T10:57:38;16.70;;;15.10;;
22046;SDS011;11187;49.412;20.956;2022-12-05T11:00:31;18.38;;;16.77;;
22046;SDS011;11187;49.412;20.956;2022-12-05T11:03:05;20.02;;;18.30;;
22046;SDS011;11187;49.412;20.956;2022-12-05T11:06:25;19.80;;;17.95;;
22046;SDS011;11187;49.412;20.956;2022-12-05T11:09:04;18.90;;;17.20;;
22046;SDS011;11187;49.412;20.956;2022-12-05T11:14:52;18.60;;;16.90;;
22046;SDS011;11187;49.412;20.956;2022-12-05T11:17:39;17.70;;;15.98;;
22046;SDS011;11187;49.412;20.956;2022-12-05T11:23:22;17.98;;;16.48;;
22046;SDS011;11187;49.412;20.956;2022-12-05T11:29:01;19.75;;;17.88;;
22046;SDS011;11187;49.412;20.956;2022-12-05T11:31:50;19.50;;;17.73;;
22046;SDS011;11187;49.412;20.956;2022-12-05T11:34:28;18.55;;;16.95;;
22046;SDS011;11187;49.412;20.956;2022-12-05T11:37:24;17.50;;;15.88;;
22046;SDS011;11187;49.412;20.956;2022-12-05T11:40:01;17.05;;;15.48;;
22046;SDS011;11187;49.412;20.956;2022-12-05T11:58:54;17.58;;;15.98;;
22046;SDS011;11187;49.412;20.956;2022-12-05T12:14:29;22.58;;;20.70;;
22046;SDS011;11187;49.412;20.956;2022-12-05T12:20:30;26.03;;;20.07;;
22046;SDS011;11187;49.412;20.956;2022-12-05T12:35:55;17.98;;;16.27;;
22046;SDS011;11187;49.412;20.956;2022-12-05T12:38:32;18.05;;;16.45;;
22046;SDS011;11187;49.412;20.956;2022-12-05T12:41:50;19.05;;;17.10;;
22046;SDS011;11187;49.412;20.956;2022-12-05T12:56:10;21.67;;;19.45;;
22046;SDS011;11187;49.412;20.956;2022-12-05T13:02:43;20.85;;;18.50;;
22046;SDS011;11187;49.412;20.956;2022-12-05T13:05:29;22.17;;;19.95;;
22046;SDS011;11187;49.412;20.956;2022-12-05T13:11:45;23.40;;;20.90;;
22046;SDS011;11187;49.412;20.956;2022-12-05T13:14:22;22.65;;;20.33;;
22046;SDS011;11187;49.412;20.956;2022-12-05T13:17:11;26.98;;;23.98;;
22046;SDS011;11187;49.412;20.956;2022-12-05T13:19:50;22.30;;;19.33;;
22046;SDS011;11187;49.412;20.956;2022-12-05T13:22:38;20.80;;;18.85;;
22046;SDS011;11187;49.412;20.956;2022-12-05T13:25:13;22.30;;;20.00;;
22046;SDS011;11187;49.412;20.956;2022-12-05T13:28:24;19.02;;;17.13;;
22046;SDS011;11187;49.412;20.956;2022-12-05T13:31:08;27.70;;;24.50;;
22046;SDS011;11187;49.412;20.956;2022-12-05T13:33:57;27.92;;;23.55;;
22046;SDS011;11187;49.412;20.956;2022-12-05T13:36:37;46.35;;;32.50;;
22046;SDS011;11187;49.412;20.956;2022-12-05T13:39:51;55.13;;;37.25;;
22046;SDS011;11187;49.412;20.956;2022-12-05T13:43:05;25.45;;;22.23;;
22046;SDS011;11187;49.412;20.956;2022-12-05T13:45:39;37.38;;;24.80;;
22046;SDS011;11187;49.412;20.956;2022-12-05T13:48:38;23.70;;;20.83;;
22046;SDS011;11187;49.412;20.956;2022-12-05T13:51:25;20.88;;;18.88;;
22046;SDS011;11187;49.412;20.956;2022-12-05T13:54:20;29.80;;;21.58;;
22046;SDS011;11187;49.412;20.956;2022-12-05T14:03:01;20.58;;;18.25;;
22046;SDS011;11187;49.412;20.956;2022-12-05T14:06:00;19.52;;;17.55;;
22046;SDS011;11187;49.412;20.956;2022-12-05T14:08:54;20.60;;;16.45;;
22046;SDS011;11187;49.412;20.956;2022-12-05T14:11:28;19.92;;;17.90;;
22046;SDS011;11187;49.412;20.956;2022-12-05T14:14:30;20.05;;;17.85;;
22046;SDS011;11187;49.412;20.956;2022-12-05T14:17:27;21.67;;;19.25;;
22046;SDS011;11187;49.412;20.956;2022-12-05T14:29:36;24.02;;;20.30;;
22046;SDS011;11187;49.412;20.956;2022-12-05T14:32:42;21.52;;;19.02;;
22046;SDS011;11187;49.412;20.956;2022-12-05T14:38:06;40.47;;;25.75;;
22046;SDS011;11187;49.412;20.956;2022-12-05T14:40:53;57.25;;;31.05;;
22046;SDS011;11187;49.412;20.956;2022-12-05T14:43:49;41.15;;;26.70;;
22046;SDS011;11187;49.412;20.956;2022-12-05T14:46:32;33.92;;;25.13;;
22046;SDS011;11187;49.412;20.956;2022-12-05T14:49:33;38.40;;;25.55;;
22046;SDS011;11187;49.412;20.956;2022-12-05T14:52:17;39.63;;;25.25;;
22046;SDS011;11187;49.412;20.956;2022-12-05T14:55:13;38.72;;;26.15;;
22046;SDS011;11187;49.412;20.956;2022-12-05T14:57:55;38.30;;;27.15;;
22046;SDS011;11187;49.412;20.956;2022-12-05T15:00:55;123.00;;;46.83;;
22046;SDS011;11187;49.412;20.956;2022-12-05T15:06:32;63.22;;;33.90;;
22046;SDS011;11187;49.412;20.956;2022-12-05T15:12:50;44.10;;;27.00;;
22046;SDS011;11187;49.412;20.956;2022-12-05T15:15:45;35.40;;;24.15;;
22046;SDS011;11187;49.412;20.956;2022-12-05T15:21:37;36.80;;;29.17;;
22046;SDS011;11187;49.412;20.956;2022-12-05T15:24:37;30.75;;;25.33;;
22046;SDS011;11187;49.412;20.956;2022-12-05T15:27:31;25.70;;;22.35;;
22046;SDS011;11187;49.412;20.956;2022-12-05T15:30:26;32.53;;;24.92;;
22046;SDS011;11187;49.412;20.956;2022-12-05T15:33:01;37.20;;;26.90;;
22046;SDS011;11187;49.412;20.956;2022-12-05T15:35:54;33.47;;;24.58;;
22046;SDS011;11187;49.412;20.956;2022-12-05T15:38:48;48.25;;;34.05;;
22046;SDS011;11187;49.412;20.956;2022-12-05T15:41:22;50.75;;;34.55;;
22046;SDS011;11187;49.412;20.956;2022-12-05T15:44:08;45.55;;;30.90;;
22046;SDS011;11187;49.412;20.956;2022-12-05T15:46:53;41.65;;;28.13;;
22046;SDS011;11187;49.412;20.956;2022-12-05T15:49:41;39.42;;;27.10;;
22046;SDS011;11187;49.412;20.956;2022-12-05T15:52:21;36.97;;;26.15;;
22046;SDS011;11187;49.412;20.956;2022-12-05T15:55:25;36.95;;;26.17;;
22046;SDS011;11187;49.412;20.956;2022-12-05T15:58:24;33.70;;;23.73;;
22046;SDS011;11187;49.412;20.956;2022-12-05T16:01:01;45.65;;;31.33;;
22046;SDS011;11187;49.412;20.956;2022-12-05T16:04:06;51.35;;;36.65;;
22046;SDS011;11187;49.412;20.956;2022-12-05T16:06:56;50.63;;;33.75;;
22046;SDS011;11187;49.412;20.956;2022-12-05T16:09:54;51.40;;;32.28;;
22046;SDS011;11187;49.412;20.956;2022-12-05T16:12:50;65.00;;;35.72;;
22046;SDS011;11187;49.412;20.956;2022-12-05T16:15:25;71.32;;;38.70;;
22046;SDS011;11187;49.412;20.956;2022-12-05T16:18:46;81.70;;;42.72;;
22046;SDS011;11187;49.412;20.956;2022-12-05T16:24:41;59.75;;;34.63;;
22046;SDS011;11187;49.412;20.956;2022-12-05T16:27:37;52.05;;;32.00;;
22046;SDS011;11187;49.412;20.956;2022-12-05T16:30:31;42.28;;;29.25;;
22046;SDS011;11187;49.412;20.956;2022-12-05T16:33:26;45.70;;;29.67;;
22046;SDS011;11187;49.412;20.956;2022-12-05T16:36:09;55.15;;;34.25;;
22046;SDS011;11187;49.412;20.956;2022-12-05T16:39:01;56.22;;;32.88;;
22046;SDS011;11187;49.412;20.956;2022-12-05T16:41:44;54.14;;;30.34;;
22046;SDS011;11187;49.412;20.956;2022-12-05T16:47:23;60.60;;;32.60;;
22046;SDS011;11187;49.412;20.956;2022-12-05T16:50:19;60.53;;;32.40;;
22046;SDS011;11187;49.412;20.956;2022-12-05T16:53:28;60.65;;;33.53;;
22046;SDS011;11187;49.412;20.956;2022-12-05T16:56:04;54.65;;;31.30;;
22046;SDS011;11187;49.412;20.956;2022-12-05T16:58:52;41.58;;;28.55;;
22046;SDS011;11187;49.412;20.956;2022-12-05T17:01:26;31.88;;;24.20;;
22046;SDS011;11187;49.412;20.956;2022-12-05T17:04:17;28.05;;;22.23;;
22046;SDS011;11187;49.412;20.956;2022-12-05T17:06:51;23.83;;;19.35;;
22046;SDS011;11187;49.412;20.956;2022-12-05T17:09:44;20.65;;;18.48;;
22046;SDS011;11187;49.412;20.956;2022-12-05T17:12:38;25.20;;;20.33;;
22046;SDS011;11187;49.412;20.956;2022-12-05T17:15:32;23.65;;;19.00;;
22046;SDS011;11187;49.412;20.956;2022-12-05T17:18:26;51.70;;;27.75;;
22046;SDS011;11187;49.412;20.956;2022-12-05T17:21:00;65.20;;;33.03;;
22046;SDS011;11187;49.412;20.956;2022-12-05T17:23:47;50.67;;;28.45;;
22046;SDS011;11187;49.412;20.956;2022-12-05T17:26:21;45.53;;;27.48;;
22046;SDS011;11187;49.412;20.956;2022-12-05T17:29:15;37.72;;;24.77;;
22046;SDS011;11187;49.412;20.956;2022-12-05T17:31:49;37.15;;;23.00;;
22046;SDS011;11187;49.412;20.956;2022-12-05T17:34:42;37.55;;;24.60;;
22046;SDS011;11187;49.412;20.956;2022-12-05T17:37:42;37.45;;;25.20;;
22046;SDS011;11187;49.412;20.956;2022-12-05T17:40:16;37.63;;;25.48;;
22046;SDS011;11187;49.412;20.956;2022-12-05T17:43:11;40.85;;;25.77;;
22046;SDS011;11187;49.412;20.956;2022-12-05T17:46:05;35.13;;;25.08;;
22046;SDS011;11187;49.412;20.956;2022-12-05T17:48:40;42.03;;;25.85;;
22046;SDS011;11187;49.412;20.956;2022-12-05T17:51:26;33.83;;;23.08;;
22046;SDS011;11187;49.412;20.956;2022-12-05T17:54:20;28.15;;;21.45;;
22046;SDS011;11187;49.412;20.956;2022-12-05T17:57:06;25.55;;;20.88;;
22046;SDS011;11187;49.412;20.956;2022-12-05T17:59:40;26.55;;;19.95;;
22046;SDS011;11187;49.412;20.956;2022-12-05T18:02:26;28.00;;;20.98;;
22046;SDS011;11187;49.412;20.956;2022-12-05T18:05:00;28.58;;;21.05;;
22046;SDS011;11187;49.412;20.956;2022-12-05T18:07:46;33.13;;;24.20;;
22046;SDS011;11187;49.412;20.956;2022-12-05T18:10:20;42.00;;;31.65;;
22046;SDS011;11187;49.412;20.956;2022-12-05T18:13:09;43.55;;;29.95;;
22046;SDS011;11187;49.412;20.956;2022-12-05T18:15:42;45.88;;;31.77;;
22046;SDS011;11187;49.412;20.956;2022-12-05T18:18:29;52.97;;;34.67;;
22046;SDS011;11187;49.412;20.956;2022-12-05T18:21:06;59.50;;;37.53;;
22046;SDS011;11187;49.412;20.956;2022-12-05T18:24:04;53.75;;;35.95;;
22046;SDS011;11187;49.412;20.956;2022-12-05T18:26:58;60.08;;;35.50;;
22046;SDS011;11187;49.412;20.956;2022-12-05T18:29:32;63.78;;;36.65;;
22046;SDS011;11187;49.412;20.956;2022-12-05T18:32:18;57.53;;;36.72;;